Time;durP1;ratioP1;P1;durP2;ratioP2;P2;SDS_P1;SDS_P2;PMS_P1;PMS_P2;Temp;Humidity;BMP_temperature;BMP_pressure;BME280_temperature;BME280_humidity;BME280_pressure;Samples;Min_cycle;Max_cycle;Signal;HPM_P1;HPM_P2
2023/01/22 00:00:16;;;;;;;12.07;6.90;;;;;;;-0.06;100.00;102302.13;4950078;28;20054;-80
2023/01/22 00:02:43;;;;;;;12.15;8.10;;;;;;;-0.10;100.00;102301.03;4959355;28;20822;-79
2023/01/22 00:05:10;;;;;;;11.65;7.03;;;;;;;-0.10;100.00;102295.00;4947413;28;20055;-81
2023/01/22 00:07:36;;;;;;;10.30;6.68;;;;;;;-0.09;100.00;102300.25;4947984;28;20043;-82
2023/01/22 00:10:06;;;;;;;11.52;7.55;;;;;;;-0.09;100.00;102295.09;4953797;28;20105;-81
2023/01/22 00:12:32;;;;;;;10.45;6.95;;;;;;;-0.07;100.00;102293.50;4954614;28;20054;-79
2023/01/22 00:17:40;;;;;;;9.57;6.95;;;;;;;-0.04;100.00;102297.94;4918702;28;20141;-82
2023/01/22 00:20:07;;;;;;;9.48;7.15;;;;;;;-0.05;100.00;102289.34;4957554;28;20062;-79
2023/01/22 00:22:35;;;;;;;10.70;7.13;;;;;;;-0.06;100.00;102291.81;4949787;28;20049;-78
2023/01/22 00:25:04;;;;;;;10.48;6.43;;;;;;;-0.11;100.00;102288.06;4948236;28;20038;-80
2023/01/22 00:27:30;;;;;;;12.48;6.75;;;;;;;-0.17;100.00;102291.16;4954232;28;20038;-78
2023/01/22 00:29:58;;;;;;;9.18;5.63;;;;;;;-0.21;100.00;102277.22;4941587;28;20600;-78
2023/01/22 00:32:25;;;;;;;12.30;7.22;;;;;;;-0.20;100.00;102284.13;4937592;28;20055;-79
2023/01/22 00:34:53;;;;;;;12.73;6.65;;;;;;;-0.20;100.00;102278.09;4959859;28;20054;-79
2023/01/22 00:37:20;;;;;;;10.98;6.55;;;;;;;-0.23;100.00;102286.53;4960543;28;20495;-79
2023/01/22 00:39:47;;;;;;;9.85;6.57;;;;;;;-0.28;100.00;102282.78;4957820;28;20046;-79
2023/01/22 00:42:14;;;;;;;9.95;6.72;;;;;;;-0.26;100.00;102285.44;4933668;28;20129;-80
2023/01/22 00:44:40;;;;;;;9.30;6.63;;;;;;;-0.24;100.00;102281.28;4928117;28;20057;-80
2023/01/22 00:47:07;;;;;;;9.68;6.43;;;;;;;-0.24;100.00;102286.44;4937053;28;20329;-79
2023/01/22 00:49:34;;;;;;;11.68;6.75;;;;;;;-0.33;100.00;102276.47;4949558;28;20050;-80
2023/01/22 00:52:00;;;;;;;11.07;6.55;;;;;;;-0.35;100.00;102278.06;4931600;28;20054;-79
2023/01/22 00:54:28;;;;;;;8.50;6.45;;;;;;;-0.36;100.00;102279.72;4956971;28;20057;-80
2023/01/22 00:56:55;;;;;;;10.20;7.22;;;;;;;-0.34;100.00;102280.72;4958512;28;20404;-80
2023/01/22 00:59:22;;;;;;;11.00;6.18;;;;;;;-0.31;100.00;102274.88;4945371;28;20047;-79
2023/01/22 01:01:48;;;;;;;8.13;6.03;;;;;;;-0.31;100.00;102273.97;4951808;28;20049;-80
2023/01/22 01:04:15;;;;;;;10.57;6.68;;;;;;;-0.30;100.00;102268.03;4953005;28;20873;-81
2023/01/22 01:06:43;;;;;;;12.35;6.38;;;;;;;-0.29;100.00;102268.13;4956650;28;20073;-81
2023/01/22 01:09:11;;;;;;;8.63;6.32;;;;;;;-0.28;100.00;102271.59;4937321;28;20050;-80
2023/01/22 01:11:38;;;;;;;8.35;6.10;;;;;;;-0.28;100.00;102271.59;4941755;28;20346;-81
2023/01/22 01:14:09;;;;;;;10.63;6.22;;;;;;;-0.26;100.00;102263.19;4955422;28;20042;-80
2023/01/22 01:16:37;;;;;;;11.57;6.82;;;;;;;-0.27;100.00;102263.97;4974925;28;20488;-80
2023/01/22 01:19:08;;;;;;;8.50;6.07;;;;;;;-0.25;100.00;102264.97;4959588;28;20043;-81
2023/01/22 01:21:37;;;;;;;11.85;8.13;;;;;;;-0.26;100.00;102267.41;4957991;28;21107;-80
2023/01/22 01:24:13;;;;;;;9.88;6.80;;;;;;;-0.26;100.00;102260.63;4956215;28;20081;-79
2023/01/22 01:26:42;;;;;;;11.40;6.32;;;;;;;-0.26;100.00;102257.13;4972824;28;20497;-80
2023/01/22 01:29:11;;;;;;;8.50;6.03;;;;;;;-0.23;100.00;102257.34;4963391;28;20537;-80
2023/01/22 01:31:38;;;;;;;10.52;6.43;;;;;;;-0.21;100.00;102256.63;4949748;28;20140;-79
2023/01/22 01:34:08;;;;;;;11.65;6.53;;;;;;;-0.22;100.00;102248.78;4957746;28;20042;-80
2023/01/22 01:36:35;;;;;;;10.50;6.45;;;;;;;-0.22;100.00;102259.09;4967256;28;20047;-79
2023/01/22 01:39:02;;;;;;;8.68;6.30;;;;;;;-0.23;100.00;102257.34;4941543;28;20054;-79
2023/01/22 01:41:29;;;;;;;8.63;5.97;;;;;;;-0.20;100.00;102249.78;4952482;28;20141;-79
2023/01/22 01:44:13;;;;;;;10.40;5.97;;;;;;;-0.19;100.00;102249.00;4960677;28;20049;-80
2023/01/22 01:47:04;;;;;;;7.40;5.07;;;;;;;-0.20;100.00;102244.66;4967638;28;20044;-81
2023/01/22 01:49:53;;;;;;;8.90;5.00;;;;;;;-0.19;100.00;102252.44;4940532;28;20046;-82
2023/01/22 01:52:22;;;;;;;6.70;5.25;;;;;;;-0.18;100.00;102254.22;4946534;28;20137;-80
2023/01/22 01:54:54;;;;;;;8.52;5.53;;;;;;;-0.17;100.00;102245.72;4954141;28;20073;-80
2023/01/22 01:57:28;;;;;;;5.95;5.28;;;;;;;-0.17;100.00;102245.72;4946569;28;20105;-80
2023/01/22 01:59:56;;;;;;;8.23;5.63;;;;;;;-0.15;100.00;102239.78;4959008;28;20058;-82
2023/01/22 02:02:23;;;;;;;6.88;4.85;;;;;;;-0.13;100.00;102244.22;4967815;28;20305;-80
2023/01/22 02:04:53;;;;;;;10.82;5.88;;;;;;;-0.13;100.00;102249.38;4957838;28;20105;-80
2023/01/22 02:07:23;;;;;;;9.80;5.72;;;;;;;-0.13;100.00;102249.38;4939090;28;20050;-80
2023/01/22 02:09:49;;;;;;;9.05;5.22;;;;;;;-0.12;100.00;102245.09;4948560;28;20146;-80
2023/01/22 02:12:16;;;;;;;6.55;4.70;;;;;;;-0.10;100.00;102256.41;4934386;28;20061;-82
2023/01/22 02:14:44;;;;;;;7.93;5.20;;;;;;;-0.10;100.00;102254.69;4942854;28;20034;-82
2023/01/22 02:17:20;;;;;;;5.32;4.82;;;;;;;-0.11;100.00;102252.91;4946585;28;20552;-81
2023/01/22 02:19:47;;;;;;;7.35;4.32;;;;;;;-0.11;100.00;102252.03;4950993;28;20162;-80
2023/01/22 02:22:29;;;;;;;6.82;5.18;;;;;;;-0.09;100.00;102255.56;4947838;28;20037;-81
2023/01/22 02:24:56;;;;;;;5.60;4.70;;;;;;;-0.09;100.00;102253.91;4945226;28;20701;-81
2023/01/22 02:27:24;;;;;;;7.30;4.72;;;;;;;-0.08;100.00;102253.13;4943553;28;20046;-80
2023/01/22 02:29:51;;;;;;;9.75;5.35;;;;;;;-0.11;100.00;102247.78;4956183;28;20430;-83
2023/01/22 02:32:17;;;;;;;10.32;5.07;;;;;;;-0.11;100.00;102249.47;4952278;28;20052;-80
2023/01/22 02:34:44;;;;;;;6.10;4.90;;;;;;;-0.11;100.00;102247.78;4946137;28;20043;-80
2023/01/22 02:37:11;;;;;;;6.10;4.63;;;;;;;-0.12;100.00;102240.84;4946145;28;20046;-82
2023/01/22 02:39:46;;;;;;;7.18;4.95;;;;;;;-0.12;100.00;102239.97;4967362;28;20045;-81
2023/01/22 02:42:14;;;;;;;6.70;5.10;;;;;;;-0.14;100.00;102245.03;4978767;28;20038;-82
2023/01/22 02:44:40;;;;;;;6.40;4.35;;;;;;;-0.14;100.00;102246.69;4949796;28;20067;-79
2023/01/22 02:47:07;;;;;;;8.00;5.95;;;;;;;-0.14;100.00;102245.03;4947853;28;20143;-83
2023/01/22 02:49:33;;;;;;;8.20;5.35;;;;;;;-0.18;100.00;102238.78;4974966;28;20042;-80
2023/01/22 02:52:00;;;;;;;6.80;4.40;;;;;;;-0.16;100.00;102233.72;4968441;28;20113;-81
2023/01/22 02:54:27;;;;;;;7.20;4.35;;;;;;;-0.18;100.00;102233.66;4942598;28;20093;-81
2023/01/22 02:56:54;;;;;;;6.43;4.15;;;;;;;-0.16;100.00;102238.88;4977443;28;20421;-79
2023/01/22 02:59:21;;;;;;;5.40;4.47;;;;;;;-0.17;100.00;102238.00;4978257;28;20050;-79
2023/01/22 03:01:48;;;;;;;7.85;4.88;;;;;;;-0.14;100.00;102241.53;4956105;28;20062;-79
2023/01/22 03:04:15;;;;;;;6.95;4.03;;;;;;;-0.13;100.00;102233.94;4954907;28;20068;-78
2023/01/22 03:06:45;;;;;;;5.82;4.25;;;;;;;-0.13;100.00;102220.16;4961618;28;20116;-78
2023/01/22 03:09:16;;;;;;;8.40;4.13;;;;;;;-0.13;100.00;102233.94;4951741;28;20050;-79
2023/01/22 03:11:47;;;;;;;7.55;5.53;;;;;;;-0.15;100.00;102224.34;4951470;28;20042;-78
2023/01/22 03:22:33;;;;;;;4.60;3.92;;;;;;;-0.15;100.00;102219.19;4954285;28;20129;-79
2023/01/22 03:25:02;;;;;;;6.28;4.20;;;;;;;-0.14;100.00;102223.53;4951625;28;20126;-80
2023/01/22 03:30:14;;;;;;;6.68;5.15;;;;;;;-0.18;100.00;102218.19;4955200;28;20067;-80
2023/01/22 03:32:41;;;;;;;8.23;4.85;;;;;;;-0.17;100.00;102225.13;4939474;28;20047;-79
2023/01/22 03:35:08;;;;;;;6.65;4.28;;;;;;;-0.15;100.00;102226.91;4952593;28;20042;-79
2023/01/22 03:37:35;;;;;;;6.50;4.22;;;;;;;-0.15;100.00;102225.22;4955382;28;20521;-80
2023/01/22 03:40:02;;;;;;;8.48;5.20;;;;;;;-0.19;100.00;102224.13;4953065;28;20042;-81
2023/01/22 03:42:31;;;;;;;6.57;4.50;;;;;;;-0.21;100.00;102230.91;4956466;28;20062;-80
2023/01/22 03:45:04;;;;;;;5.82;4.50;;;;;;;-0.23;100.00;102224.75;4952735;28;20047;-80
2023/01/22 03:47:32;;;;;;;7.68;5.00;;;;;;;-0.22;100.00;102218.81;4970102;28;20125;-79
2023/01/22 03:49:59;;;;;;;5.65;4.07;;;;;;;-0.24;100.00;102228.13;4953819;28;20039;-80
2023/01/22 03:52:25;;;;;;;7.15;4.25;;;;;;;-0.25;100.00;102226.38;4955806;28;20058;-80
2023/01/22 03:54:52;;;;;;;5.00;3.67;;;;;;;-0.24;100.00;102227.25;4953748;28;20106;-79
2023/01/22 03:57:19;;;;;;;4.63;4.22;;;;;;;-0.26;100.00;102221.09;4945223;28;20132;-80
2023/01/22 03:59:45;;;;;;;5.07;4.40;;;;;;;-0.28;100.00;102223.59;4958058;28;20050;-79
2023/01/22 04:02:12;;;;;;;5.72;3.90;;;;;;;-0.28;100.00;102227.84;4960314;28;20098;-80
2023/01/22 04:04:38;;;;;;;5.78;4.45;;;;;;;-0.26;100.00;102226.25;4962836;28;20064;-81
2023/01/22 04:07:05;;;;;;;3.88;3.22;;;;;;;-0.26;100.00;102218.53;4987895;28;20030;-80
2023/01/22 04:09:31;;;;;;;6.70;4.15;;;;;;;-0.30;100.00;102224.28;4993743;28;20035;-79
2023/01/22 04:11:59;;;;;;;4.95;3.38;;;;;;;-0.33;100.00;102222.41;4959767;28;20046;-81
2023/01/22 04:14:26;;;;;;;3.83;3.30;;;;;;;-0.36;100.00;102215.41;4968191;28;20047;-80
2023/01/22 04:16:52;;;;;;;3.70;3.38;;;;;;;-0.36;100.00;102222.25;4940641;28;20197;-80
2023/01/22 04:19:19;;;;;;;7.03;3.80;;;;;;;-0.35;100.00;102231.75;4959495;28;20499;-80
2023/01/22 04:21:47;;;;;;;5.00;3.75;;;;;;;-0.36;100.00;102235.97;4941319;28;20046;-82
2023/01/22 04:24:14;;;;;;;4.45;3.78;;;;;;;-0.41;100.00;102223.66;4951059;28;20124;-80
2023/01/22 04:26:41;;;;;;;4.20;3.42;;;;;;;-0.43;100.00;102225.22;4957179;28;20051;-81
2023/01/22 04:29:11;;;;;;;3.97;3.25;;;;;;;-0.44;100.00;102231.16;4963716;28;20114;-80
2023/01/22 04:31:37;;;;;;;4.55;4.03;;;;;;;-0.41;100.00;102229.66;4967754;28;20046;-81
2023/01/22 04:34:05;;;;;;;7.32;3.60;;;;;;;-0.42;100.00;102234.72;4959126;28;20042;-81
2023/01/22 04:36:32;;;;;;;6.45;3.65;;;;;;;-0.42;100.00;102230.44;4960998;28;20113;-81
2023/01/22 04:38:59;;;;;;;6.65;3.97;;;;;;;-0.41;100.00;102229.66;4956058;28;20043;-80
2023/01/22 04:41:25;;;;;;;3.63;3.33;;;;;;;-0.39;100.00;102229.75;4956668;28;20067;-80
2023/01/22 04:43:52;;;;;;;8.32;4.05;;;;;;;-0.37;100.00;102236.78;4953621;28;20125;-81
2023/01/22 04:46:22;;;;;;;5.72;3.80;;;;;;;-0.35;100.00;102239.47;4954054;28;20035;-80
2023/01/22 04:48:52;;;;;;;4.80;3.50;;;;;;;-0.36;100.00;102240.25;4974092;28;20048;-80
2023/01/22 04:51:18;;;;;;;5.45;4.07;;;;;;;-0.39;100.00;102235.81;4936397;28;20512;-80
2023/01/22 04:53:48;;;;;;;5.78;4.05;;;;;;;-0.37;100.00;102230.75;4933059;28;20141;-80
2023/01/22 04:56:17;;;;;;;4.63;3.38;;;;;;;-0.39;100.00;102238.38;4941283;28;20241;-82
2023/01/22 04:58:45;;;;;;;4.78;3.65;;;;;;;-0.36;100.00;102235.09;4956648;28;20046;-80
2023/01/22 05:01:12;;;;;;;5.10;4.00;;;;;;;-0.37;100.00;102231.63;4950877;28;20038;-80
2023/01/22 05:03:40;;;;;;;4.78;4.25;;;;;;;-0.39;100.00;102233.22;4949435;28;21811;-80
2023/01/22 05:06:07;;;;;;;3.97;3.58;;;;;;;-0.41;100.00;102231.38;4957235;28;20051;-80
2023/01/22 05:08:35;;;;;;;3.20;2.97;;;;;;;-0.41;100.00;102231.38;4925753;28;20047;-80
2023/01/22 05:11:03;;;;;;;4.40;3.50;;;;;;;-0.42;100.00;102234.72;4952871;28;20147;-80
2023/01/22 05:13:30;;;;;;;4.10;3.70;;;;;;;-0.44;100.00;102226.91;4932575;28;20051;-80
2023/01/22 05:15:56;;;;;;;5.13;4.60;;;;;;;-0.46;100.00;102236.22;4936935;28;20869;-80
2023/01/22 05:18:23;;;;;;;4.80;3.55;;;;;;;-0.45;100.00;102238.00;4934362;28;20050;-80
2023/01/22 05:20:50;;;;;;;4.57;3.22;;;;;;;-0.43;100.00;102239.00;4952743;28;21833;-81
2023/01/22 05:23:19;;;;;;;4.70;4.05;;;;;;;-0.43;100.00;102225.22;4914159;28;21490;-80
2023/01/22 05:25:50;;;;;;;4.47;3.72;;;;;;;-0.44;100.00;102234.63;4934337;28;20471;-81
2023/01/22 05:28:17;;;;;;;5.57;4.15;;;;;;;-0.46;100.00;102233.63;4924152;28;20358;-81
2023/01/22 05:30:43;;;;;;;3.67;3.35;;;;;;;-0.46;100.00;102228.50;4935656;28;20031;-79
2023/01/22 05:33:10;;;;;;;3.28;2.88;;;;;;;-0.49;100.00;102230.88;4940980;28;20051;-82
2023/01/22 05:35:37;;;;;;;5.13;4.13;;;;;;;-0.49;100.00;102235.16;4955225;28;20035;-80
2023/01/22 05:38:04;;;;;;;4.90;3.67;;;;;;;-0.53;100.00;102236.66;4938732;28;20157;-80
2023/01/22 05:40:38;;;;;;;;;;;;;;;-0.54;100.00;102238.31;4932678;28;20055;-80
2023/01/22 05:43:07;;;;;;;4.60;3.78;;;;;;;-0.52;100.00;102241.00;4949229;28;19927;-81
2023/01/22 05:45:33;;;;;;;5.40;4.03;;;;;;;-0.51;100.00;102242.75;4938122;28;20047;-82
2023/01/22 05:48:00;;;;;;;4.47;3.75;;;;;;;-0.50;100.00;102247.13;4935198;28;20169;-81
2023/01/22 05:50:28;;;;;;;6.47;4.15;;;;;;;-0.52;100.00;102247.03;4946095;28;20466;-80
2023/01/22 05:52:59;;;;;;;8.27;4.28;;;;;;;-0.52;100.00;102248.72;4959142;28;20039;-82
2023/01/22 05:55:26;;;;;;;5.60;4.70;;;;;;;-0.55;100.00;102243.38;4956448;28;20086;-81
2023/01/22 05:57:52;;;;;;;6.10;4.50;;;;;;;-0.51;100.00;102250.47;4941365;28;20480;-81
2023/01/22 06:00:19;;;;;;;5.95;4.57;;;;;;;-0.49;100.00;102245.44;4952310;28;20569;-80
2023/01/22 06:02:46;;;;;;;5.57;4.93;;;;;;;-0.50;100.00;102252.25;4941027;28;20120;-80
2023/01/22 06:05:12;;;;;;;6.70;5.20;;;;;;;-0.49;100.00;102254.03;4931828;28;20461;-79
2023/01/22 06:07:40;;;;;;;8.00;5.22;;;;;;;-0.47;100.00;102248.97;4960827;28;20121;-80
2023/01/22 06:10:08;;;;;;;5.88;4.80;;;;;;;-0.47;100.00;102254.13;4965414;28;20549;-82
2023/01/22 06:12:36;;;;;;;5.35;4.75;;;;;;;-0.49;100.00;102254.03;4942392;28;20050;-80
2023/01/22 06:15:02;;;;;;;7.65;5.90;;;;;;;-0.51;100.00;102253.03;4953764;28;20070;-81
2023/01/22 06:17:29;;;;;;;7.03;5.25;;;;;;;-0.52;100.00;102259.00;4964185;28;20034;-80
2023/01/22 06:19:55;;;;;;;6.45;4.70;;;;;;;-0.53;100.00;102258.09;4933532;28;20859;-82
2023/01/22 06:22:22;;;;;;;5.90;4.78;;;;;;;-0.53;100.00;102264.94;4962272;28;20050;-83
2023/01/22 06:24:50;;;;;;;7.47;5.53;;;;;;;-0.53;100.00;102258.09;4944883;28;20055;-82
2023/01/22 06:27:19;;;;;;;8.25;6.63;;;;;;;-0.52;100.00;102259.88;4954398;28;20702;-83
2023/01/22 06:29:48;;;;;;;7.13;5.63;;;;;;;-0.51;100.00;102253.94;4967825;28;21072;-82
2023/01/22 06:32:15;;;;;;;7.97;5.25;;;;;;;-0.50;100.00;102254.84;4959084;28;20158;-81
2023/01/22 06:34:52;;;;;;;;;;;;;;;;;;;;;
2023/01/22 06:37:21;;;;;;;8.02;5.25;;;;;;;-0.48;100.00;102260.97;4961766;28;20045;-81
2023/01/22 06:39:49;;;;;;;7.40;5.22;;;;;;;-0.47;100.00;102267.91;4956422;28;20078;-80
2023/01/22 06:42:16;;;;;;;5.32;4.10;;;;;;;-0.47;100.00;102267.91;4962717;28;20046;-80
2023/01/22 06:44:43;;;;;;;7.10;4.75;;;;;;;-0.44;100.00;102267.16;4957081;28;21314;-81
2023/01/22 06:47:10;;;;;;;5.13;4.20;;;;;;;-0.42;100.00;102273.31;4949014;28;20520;-83
2023/01/22 06:49:37;;;;;;;7.07;4.97;;;;;;;-0.42;100.00;102273.31;4939553;28;20049;-83
2023/01/22 06:52:11;;;;;;;7.00;4.05;;;;;;;-0.40;100.00;102276.88;4956216;28;20053;-83
2023/01/22 06:54:38;;;;;;;5.68;4.13;;;;;;;-0.40;100.00;102279.47;4952728;28;20823;-83
2023/01/22 06:57:05;;;;;;;6.20;4.68;;;;;;;-0.35;100.00;102273.78;4959440;28;20050;-82
2023/01/22 06:59:32;;;;;;;7.38;5.30;;;;;;;-0.31;100.00;102291.97;4937991;28;20066;-81
2023/01/22 07:02:04;;;;;;;6.72;4.35;;;;;;;-0.34;100.00;102284.97;4955975;28;20038;-81
2023/01/22 07:04:32;;;;;;;5.55;4.85;;;;;;;-0.34;100.00;102285.88;4941535;28;20054;-85
2023/01/22 07:07:00;;;;;;;9.65;5.57;;;;;;;-0.32;100.00;102287.66;4930788;28;20099;-80
2023/01/22 07:09:29;;;;;;;6.97;4.47;;;;;;;-0.34;100.00;102295.25;4949033;28;20122;-82
2023/01/22 07:11:59;;;;;;;5.68;4.45;;;;;;;-0.36;100.00;102292.59;4965374;28;20031;-82
2023/01/22 07:14:26;;;;;;;7.22;4.72;;;;;;;-0.35;100.00;102296.94;4956879;28;20695;-82
2023/01/22 07:16:53;;;;;;;7.03;4.57;;;;;;;-0.31;100.00;102297.13;4964905;28;20038;-82
2023/01/22 07:19:24;;;;;;;6.72;4.55;;;;;;;-0.30;100.00;102301.50;4951047;28;20077;-82
2023/01/22 07:21:51;;;;;;;7.25;4.47;;;;;;;-0.27;100.00;102312.00;4964046;28;20051;-82
2023/01/22 07:24:18;;;;;;;9.07;5.00;;;;;;;-0.25;100.00;102319.00;4959306;28;20039;-83
2023/01/22 07:26:47;;;;;;;7.00;5.25;;;;;;;-0.21;100.00;102309.78;4963056;28;20054;-82
2023/01/22 07:29:14;;;;;;;7.95;5.03;;;;;;;-0.24;100.00;102319.88;4964643;28;20091;-82
2023/01/22 07:31:41;;;;;;;5.20;3.90;;;;;;;-0.24;100.00;102319.88;4945192;28;20055;-82
2023/01/22 07:34:11;;;;;;;7.22;4.18;;;;;;;-0.24;100.00;102319.88;4976342;28;20062;-81
2023/01/22 07:36:49;;;;;;;5.25;3.88;;;;;;;-0.22;100.00;102326.91;4948917;28;20065;-83
2023/01/22 07:39:15;;;;;;;8.80;5.75;;;;;;;-0.23;100.00;102324.25;4938325;28;20531;-82
2023/01/22 07:41:42;;;;;;;6.53;4.55;;;;;;;-0.23;100.00;102334.53;4958569;28;20047;-80
2023/01/22 07:44:11;;;;;;;6.32;4.75;;;;;;;-0.30;100.00;102329.78;4972923;28;20046;-81
2023/01/22 07:46:40;;;;;;;7.00;4.70;;;;;;;-0.29;100.00;102332.47;4954340;28;20042;-82
2023/01/22 07:49:09;;;;;;;5.07;4.57;;;;;;;-0.26;100.00;102334.34;4952383;28;20054;-84
2023/01/22 07:51:39;;;;;;;7.05;5.03;;;;;;;-0.26;100.00;102336.91;4946439;28;20050;-84
2023/01/22 07:54:06;;;;;;;7.28;4.60;;;;;;;-0.26;100.00;102335.25;4937128;28;20042;-83
2023/01/22 07:56:34;;;;;;;7.43;4.72;;;;;;;-0.27;100.00;102341.19;4927042;28;20141;-81
2023/01/22 07:59:04;;;;;;;6.82;4.82;;;;;;;-0.25;100.00;102344.75;4963741;28;21273;-81
2023/01/22 08:01:36;;;;;;;7.57;4.55;;;;;;;-0.22;100.00;102346.59;4959114;28;20059;-83
2023/01/22 08:04:13;;;;;;;5.88;5.00;;;;;;;-0.24;100.00;102345.63;4944181;28;20046;-81
2023/01/22 08:06:49;;;;;;;6.65;4.47;;;;;;;-0.22;100.00;102341.44;4960833;28;20125;-83
2023/01/22 08:09:24;;;;;;;5.93;4.53;;;;;;;-0.20;100.00;102343.31;4967080;28;20053;-82
2023/01/22 08:17:40;;;;;;;10.30;5.68;;;;;;;-0.22;100.00;102350.06;4983076;28;20529;-85
2023/01/22 08:20:08;;;;;;;5.00;4.25;;;;;;;-0.19;100.00;102346.81;4970166;28;20039;-85
2023/01/22 08:22:44;;;;;;;6.88;5.20;;;;;;;-0.17;100.00;102351.25;4958298;28;20109;-83
2023/01/22 08:25:12;;;;;;;6.43;4.28;;;;;;;-0.18;100.00;102348.59;4944352;28;20070;-83
2023/01/22 08:27:39;;;;;;;6.65;5.00;;;;;;;-0.21;100.00;102348.38;4957177;28;20042;-85
2023/01/22 08:30:10;;;;;;;8.45;5.22;;;;;;;-0.15;100.00;102356.50;4941942;28;21109;-85
2023/01/22 08:32:44;;;;;;;8.73;5.68;;;;;;;-0.13;100.00;102357.50;4958252;28;20124;-83
2023/01/22 08:35:14;;;;;;;6.60;4.63;;;;;;;-0.08;100.00;102362.91;4939830;28;20077;-81
2023/01/22 08:37:45;;;;;;;8.75;5.00;;;;;;;-0.06;100.00;102364.78;4967246;28;20265;-82
2023/01/22 08:40:16;;;;;;;11.30;4.97;;;;;;;-0.01;100.00;102362.50;4989744;28;20101;-83
2023/01/22 08:42:43;;;;;;;14.57;8.23;;;;;;;0.07;100.00;102366.44;4947471;28;20085;-83
2023/01/22 08:45:10;;;;;;;10.38;5.78;;;;;;;0.10;100.00;102368.31;4964081;28;20050;-84
2023/01/22 08:47:42;;;;;;;7.75;5.78;;;;;;;0.13;100.00;102373.63;4949285;28;20046;-83
2023/01/22 08:50:10;;;;;;;4.85;3.70;;;;;;;0.14;100.00;102372.84;4949681;28;20046;-82
2023/01/22 08:52:37;;;;;;;7.93;5.53;;;;;;;0.16;100.00;102371.28;4960462;28;20354;-82
2023/01/22 08:55:08;;;;;;;8.75;5.68;;;;;;;0.19;100.00;102370.56;4963668;28;20088;-85
2023/01/22 08:57:40;;;;;;;7.88;5.25;;;;;;;0.21;100.00;102369.88;4972847;28;20050;-81
2023/01/22 09:00:10;;;;;;;8.13;5.22;;;;;;;0.20;100.00;102378.38;4965052;28;20046;-83
2023/01/22 09:02:37;;;;;;;7.50;5.63;;;;;;;0.19;100.00;102379.19;4953639;28;20481;-83
2023/01/22 09:05:08;;;;;;;13.98;8.25;;;;;;;0.20;100.00;102382.66;4925579;28;20039;-83
2023/01/22 09:07:36;;;;;;;8.90;6.47;;;;;;;0.20;100.00;102385.22;4946204;28;20733;-83
2023/01/22 09:10:06;;;;;;;7.15;5.72;;;;;;;0.24;100.00;102380.34;4975200;28;20054;-84
2023/01/22 09:12:37;;;;;;;6.53;5.70;;;;;;;0.26;100.00;102381.34;4941515;28;20070;-82
2023/01/22 09:15:04;;;;;;;5.95;4.63;;;;;;;0.29;100.00;102389.25;4959508;28;20039;-82
2023/01/22 09:17:32;;;;;;;7.93;5.05;;;;;;;0.32;100.00;102386.84;4942801;28;20049;-82
2023/01/22 09:19:59;;;;;;;9.15;5.30;;;;;;;0.27;100.00;102397.69;4959264;28;20066;-81
2023/01/22 09:22:25;;;;;;;7.35;5.07;;;;;;;0.24;100.00;102387.19;4978452;28;20338;-81
2023/01/22 09:24:53;;;;;;;7.63;5.93;;;;;;;0.26;100.00;102393.31;4960719;28;20062;-82
2023/01/22 09:27:23;;;;;;;7.05;5.15;;;;;;;0.22;100.00;102392.25;4945786;28;20109;-82
2023/01/22 09:29:51;;;;;;;6.25;5.50;;;;;;;0.25;100.00;102399.25;4963694;28;20051;-82
2023/01/22 09:32:18;;;;;;;6.07;4.45;;;;;;;0.25;100.00;102410.47;4947077;28;20062;-82
2023/01/22 09:34:45;;;;;;;6.60;5.00;;;;;;;0.32;100.00;102398.84;4962994;28;20038;-84
2023/01/22 09:37:13;;;;;;;8.15;5.07;;;;;;;0.39;100.00;102405.25;4958721;28;20082;-83
2023/01/22 09:39:43;;;;;;;5.22;4.28;;;;;;;0.45;100.00;102401.38;4970776;28;20038;-82
2023/01/22 09:42:23;;;;;;;6.80;5.32;;;;;;;0.44;100.00;102407.34;4932478;28;20101;-82
2023/01/22 09:44:56;;;;;;;10.23;5.72;;;;;;;0.35;100.00;102406.75;4928837;28;20090;-83
2023/01/22 09:47:46;;;;;;;6.50;4.60;;;;;;;0.36;100.00;102400.81;4959741;28;20062;-84
2023/01/22 09:50:29;;;;;;;8.73;5.85;;;;;;;0.36;100.00;102405.97;4973194;28;20043;-84
2023/01/22 09:53:12;;;;;;;6.43;4.38;;;;;;;0.37;100.00;102404.28;4958186;28;20034;-86
2023/01/22 09:55:46;;;;;;;7.15;4.28;;;;;;;0.38;100.00;102400.91;4941090;28;20043;-83
2023/01/22 09:58:23;;;;;;;6.00;4.97;;;;;;;0.46;100.00;102398.00;4971413;28;20430;-84
2023/01/22 10:01:10;;;;;;;7.28;4.45;;;;;;;0.53;100.00;102404.41;4940590;28;20059;-84
2023/01/22 10:03:49;;;;;;;13.23;5.85;;;;;;;0.56;100.00;102399.47;4958479;28;20039;-81
2023/01/22 10:06:21;;;;;;;10.18;5.43;;;;;;;0.48;100.00;102401.56;4944999;28;20089;-84
2023/01/22 10:09:06;;;;;;;9.80;6.03;;;;;;;0.41;100.00;102407.13;4971714;28;20042;-84
2023/01/22 10:11:34;;;;;;;10.98;6.22;;;;;;;0.37;100.00;102407.75;4968025;28;20154;-83
2023/01/22 10:14:02;;;;;;;9.80;5.85;;;;;;;0.37;100.00;102404.28;4968185;28;20030;-83
2023/01/22 10:16:29;;;;;;;8.82;5.70;;;;;;;0.41;100.00;102409.72;4962729;28;20047;-86
2023/01/22 10:19:24;;;;;;;6.97;4.88;;;;;;;0.41;100.00;102407.13;4966002;28;20050;-84
2023/01/22 10:21:58;;;;;;;7.07;3.78;;;;;;;0.43;100.00;102410.72;4986003;28;20475;-82
2023/01/22 10:24:26;;;;;;;6.45;4.28;;;;;;;0.43;100.00;102400.41;4963824;28;20050;-83
2023/01/22 10:26:57;;;;;;;6.57;4.45;;;;;;;0.46;100.00;102387.69;4962693;28;20042;-83
2023/01/22 10:29:33;;;;;;;8.98;3.92;;;;;;;0.47;100.00;102393.72;4971396;28;20103;-82
2023/01/22 10:32:23;;;;;;;4.68;3.95;;;;;;;0.54;100.00;102397.59;4962755;28;20058;-84
2023/01/22 10:35:17;;;;;;;9.90;4.88;;;;;;;0.47;100.00;102401.44;4964315;28;20145;-82
2023/01/22 10:37:55;;;;;;;9.23;6.35;;;;;;;0.42;100.00;102408.03;4952135;28;20046;-81
2023/01/22 10:40:36;;;;;;;8.02;4.93;;;;;;;0.46;100.00;102408.31;4955635;28;20055;-83
2023/01/22 10:43:16;;;;;;;14.55;8.18;;;;;;;0.52;100.00;102402.63;4960673;28;20038;-81
2023/01/22 10:45:58;;;;;;;11.75;6.03;;;;;;;0.60;100.00;102401.41;4951979;28;20046;-82
2023/01/22 10:48:25;;;;;;;7.85;4.88;;;;;;;0.60;100.00;102400.50;4943431;28;20548;-83
2023/01/22 10:51:15;;;;;;;8.50;4.55;;;;;;;0.61;100.00;102402.28;4951077;28;20051;-83
2023/01/22 10:53:55;;;;;;;8.68;5.35;;;;;;;0.67;100.00;102400.09;4946253;28;20042;-81
2023/01/22 10:56:36;;;;;;;8.00;5.60;;;;;;;0.63;100.00;102404.16;4965737;28;20105;-84
2023/01/22 10:59:37;;;;;;;8.23;4.97;;;;;;;0.61;100.00;102408.34;4953877;28;20532;-81
2023/01/22 11:02:21;;;;;;;7.43;4.40;;;;;;;0.61;100.00;102405.78;4936765;28;20058;-80
2023/01/22 11:04:48;;;;;;;7.13;5.68;;;;;;;0.61;100.00;102405.78;4956684;28;20049;-83
2023/01/22 11:07:18;;;;;;;9.55;6.22;;;;;;;0.61;100.00;102408.34;4945979;28;20058;-82
2023/01/22 11:10:07;;;;;;;6.90;4.53;;;;;;;0.62;100.00;102410.09;4954300;28;20130;-80
2023/01/22 11:12:44;;;;;;;4.63;3.53;;;;;;;0.75;100.00;102413.44;4979655;28;20042;-81
2023/01/22 11:15:36;;;;;;;4.75;3.63;;;;;;;0.80;100.00;102407.75;4965125;28;20109;-81
2023/01/22 11:18:06;;;;;;;6.20;4.10;;;;;;;0.81;100.00;102409.53;4977214;28;20470;-81
2023/01/22 11:20:52;;;;;;;10.20;6.80;;;;;;;0.80;100.00;102401.72;4960262;28;20043;-81
2023/01/22 11:23:44;;;;;;;7.00;3.72;;;;;;;0.85;100.00;102401.97;4978404;28;20521;-81
2023/01/22 11:26:55;;;;;;;6.22;4.40;;;;;;;0.87;100.00;102398.69;4950070;28;20139;-82
2023/01/22 11:30:02;;;;;;;3.47;2.80;;;;;;;0.95;100.00;102396.56;4928132;28;20097;-82
2023/01/22 11:32:57;;;;;;;5.28;3.58;;;;;;;0.99;100.00;102396.84;4943406;28;20229;-82
2023/01/22 11:35:36;;;;;;;;;;;;;;;0.98;100.00;102395.06;4937185;28;20069;-82
2023/01/22 11:38:17;;;;;;;3.97;3.45;;;;;;;1.06;100.00;102392.03;4972009;28;19996;-84
2023/01/22 11:41:22;;;;;;;4.53;3.20;;;;;;;1.12;100.00;102389.78;4949667;28;20058;-86
2023/01/22 11:43:58;;;;;;;;;;;;;;;1.14;100.00;102388.22;4947056;28;20043;-83
2023/01/22 11:47:05;;;;;;;5.57;3.78;;;;;;;1.17;100.00;102382.34;4952651;28;20012;-81
2023/01/22 11:49:57;;;;;;;6.18;3.33;;;;;;;1.19;100.00;102386.78;4956298;28;20050;-82
2023/01/22 12:00:59;;;;;;;5.70;4.05;;;;;;;1.26;100.00;102373.41;4952644;28;20055;-82
2023/01/22 12:04:11;;;;;;;5.18;3.70;;;;;;;1.25;100.00;102378.50;4916076;28;20801;-81